createdAt,value
2023-04-10T00:00:33.029Z,20.50
2023-04-10T00:04:39.045Z,29.20
2023-04-10T00:08:39.007Z,23.80
2023-04-10T00:12:38.032Z,24.70
2023-04-10T00:16:36.065Z,25.30
2023-04-10T00:20:34.010Z,23.60
2023-04-10T00:24:32.059Z,23.20
2023-04-10T00:28:29.967Z,24.40
2023-04-10T00:32:27.937Z,25.00
2023-04-10T00:36:26.086Z,23.30
2023-04-10T00:40:23.920Z,24.80
2023-04-10T00:44:21.936Z,24.80
2023-04-10T00:48:19.916Z,24.80
2023-04-10T00:52:18.004Z,24.60
2023-04-10T00:56:16.897Z,25.40
2023-04-10T01:00:14.977Z,24.90
2023-04-10T01:04:13.174Z,25.40
2023-04-10T01:08:40.947Z,25.70
2023-04-10T01:12:56.941Z,27.50
2023-04-10T01:17:15.918Z,27.30
2023-04-10T01:21:16.877Z,28.80
2023-04-10T01:25:44.949Z,27.70
2023-04-10T01:29:44.873Z,26.50
2023-04-10T01:33:53.184Z,27.90
2023-04-10T01:37:54.964Z,26.10
2023-04-10T01:41:55.870Z,26.10
2023-04-10T01:46:13.884Z,25.20
2023-04-10T01:50:12.923Z,26.30
2023-04-10T01:54:10.849Z,26.10
2023-04-10T01:58:08.889Z,27.20
2023-04-10T02:02:13.874Z,29.20
2023-04-10T02:06:28.857Z,25.70
2023-04-10T02:10:46.810Z,27.90
2023-04-10T02:14:46.839Z,26.50
2023-04-10T02:18:47.802Z,28.50
2023-04-10T02:22:45.844Z,28.10
2023-04-10T02:26:43.828Z,28.20
2023-04-10T02:30:41.863Z,28.10
2023-04-10T02:34:39.735Z,28.60
2023-04-10T02:38:37.856Z,29.30
2023-04-10T02:42:35.747Z,27.20
2023-04-10T02:46:33.871Z,27.20
2023-04-10T02:50:31.790Z,29.00
2023-04-10T02:54:29.791Z,29.70
2023-04-10T02:58:28.787Z,27.50
2023-04-10T03:02:27.057Z,28.80
2023-04-10T03:06:29.724Z,29.10
2023-04-10T03:10:27.849Z,29.60
2023-04-10T03:14:25.809Z,28.20
2023-04-10T03:18:23.740Z,27.00
2023-04-10T03:22:21.767Z,29.40
2023-04-10T03:26:20.771Z,28.20
2023-04-10T03:30:18.747Z,28.00
2023-04-10T03:34:16.829Z,27.90
2023-04-10T03:38:14.812Z,27.10
2023-04-10T03:42:12.723Z,26.80
2023-04-10T03:46:10.697Z,26.00
2023-04-10T03:50:08.744Z,24.50
2023-04-10T03:54:11.750Z,26.90
2023-04-10T03:58:09.732Z,27.60
2023-04-10T04:02:07.908Z,26.60
2023-04-10T04:06:06.678Z,24.10
2023-04-10T04:10:21.761Z,23.70
2023-04-10T04:14:45.676Z,24.10
2023-04-10T04:19:02.618Z,21.30
2023-04-10T04:23:08.677Z,20.40
2023-04-10T04:27:29.654Z,21.90
2023-04-10T04:31:45.670Z,20.70
2023-04-10T04:36:01.624Z,20.20
2023-04-10T04:40:10.660Z,19.40
2023-04-10T04:44:24.580Z,20.20
2023-04-10T04:48:44.641Z,19.90
2023-04-10T04:53:06.077Z,20.00
2023-04-10T04:57:24.664Z,19.70
2023-04-10T05:01:45.725Z,17.80
2023-04-10T05:06:07.578Z,19.20
2023-04-10T05:10:34.565Z,18.70
2023-04-10T05:14:44.605Z,19.40
2023-04-10T05:18:51.681Z,19.30
2023-04-10T05:23:09.581Z,18.60
2023-04-10T05:27:32.531Z,20.00
2023-04-10T05:31:55.549Z,17.90
2023-04-10T05:36:11.596Z,17.50
2023-04-10T05:40:20.641Z,18.80
2023-04-10T05:44:36.552Z,17.70
2023-04-10T05:48:50.539Z,17.50
2023-04-10T05:53:07.622Z,15.80
2023-04-10T05:57:21.559Z,15.70
2023-04-10T06:01:09.059Z,14.20
2023-04-10T06:04:39.513Z,13.40
2023-04-10T06:08:03.686Z,13.30
2023-04-10T06:11:27.719Z,11.90
2023-04-10T06:14:52.612Z,12.30
2023-04-10T06:18:20.860Z,10.90
2023-04-10T06:21:45.523Z,8.20
2023-04-10T06:25:09.962Z,10.20
2023-04-10T06:28:33.991Z,10.30
2023-04-10T06:31:58.920Z,8.80
2023-04-10T06:35:25.052Z,7.70
2023-04-10T06:38:48.968Z,8.10
2023-04-10T06:42:12.858Z,8.00
2023-04-10T06:45:51.032Z,10.90
2023-04-10T06:49:15.154Z,8.10
2023-04-10T06:52:39.157Z,8.10
2023-04-10T06:56:03.771Z,10.60
2023-04-10T06:59:27.828Z,8.20
2023-04-10T07:02:51.646Z,9.60
2023-04-10T07:06:15.703Z,9.30
2023-04-10T07:09:39.469Z,8.70
2023-04-10T07:13:03.286Z,7.80
2023-04-10T07:16:29.528Z,9.20
2023-04-10T07:19:53.571Z,8.80
2023-04-10T07:23:17.472Z,9.10
2023-04-10T07:26:43.525Z,8.20
2023-04-10T07:30:08.022Z,7.60
2023-04-10T07:33:31.867Z,8.50
2023-04-10T07:36:55.673Z,7.90
2023-04-10T07:40:19.620Z,7.50
2023-04-10T07:43:43.497Z,7.40
2023-04-10T07:47:07.313Z,7.80
2023-04-10T07:50:31.580Z,8.10
2023-04-10T07:53:55.938Z,7.90
2023-04-10T07:57:19.683Z,8.00
2023-04-10T08:00:43.868Z,7.50
2023-04-10T08:04:07.781Z,7.90
2023-04-10T08:07:31.662Z,7.50
2023-04-10T08:10:55.576Z,8.90
2023-04-10T08:14:19.459Z,7.90
2023-04-10T08:17:43.301Z,8.00
2023-04-10T08:21:07.947Z,8.20
2023-04-10T08:24:31.783Z,7.60
2023-04-10T08:27:55.616Z,7.50
2023-04-10T08:31:20.831Z,7.50
2023-04-10T08:34:44.686Z,7.40
2023-04-10T08:38:14.157Z,7.40
2023-04-10T08:41:38.563Z,7.70
2023-04-10T08:45:02.407Z,7.20
2023-04-10T08:48:32.883Z,7.40
2023-04-10T08:52:21.322Z,7.10
2023-04-10T08:56:21.340Z,7.00
2023-04-10T09:00:23.402Z,6.20
2023-04-10T09:04:21.466Z,7.40
2023-04-10T09:08:21.321Z,6.60
2023-04-10T09:12:19.316Z,7.60
2023-04-10T09:16:17.322Z,6.90
2023-04-10T09:20:15.458Z,6.70
2023-04-10T09:24:16.304Z,7.00
2023-04-10T09:28:24.374Z,6.50
2023-04-10T09:32:22.326Z,7.10
2023-04-10T09:36:27.327Z,6.70
2023-04-10T09:40:39.353Z,6.20
2023-04-10T09:44:45.348Z,5.70
2023-04-10T09:48:43.284Z,6.10
2023-04-10T09:52:50.284Z,6.30
2023-04-10T09:56:52.316Z,5.50
2023-04-10T10:01:01.274Z,4.90
2023-04-10T10:05:00.336Z,6.00
2023-04-10T10:08:59.246Z,6.10
2023-04-10T10:13:09.238Z,6.10
2023-04-10T10:17:13.236Z,6.00
2023-04-10T10:21:11.247Z,6.70
2023-04-10T10:25:11.223Z,6.70
2023-04-10T10:29:11.277Z,6.20
2023-04-10T10:33:09.313Z,6.10
2023-04-10T10:37:07.200Z,5.40
2023-04-10T10:41:27.232Z,5.50
2023-04-10T10:45:32.432Z,5.90
2023-04-10T10:49:30.310Z,5.00
2023-04-10T10:53:47.187Z,5.00
2023-04-10T10:58:09.408Z,5.30
2023-04-10T11:02:27.349Z,5.50
2023-04-10T11:06:27.192Z,4.60
2023-04-10T11:10:25.232Z,4.50
2023-04-10T11:14:24.221Z,4.60
2023-04-10T11:18:22.200Z,5.00
2023-04-10T11:22:22.191Z,4.30
2023-04-10T11:26:20.154Z,5.00
2023-04-10T11:30:18.187Z,4.80
2023-04-10T11:34:23.169Z,4.80
2023-04-10T11:38:29.275Z,5.00
2023-04-10T11:42:27.132Z,4.60
2023-04-10T11:46:25.298Z,5.10
2023-04-10T11:50:25.168Z,5.00
2023-04-10T11:54:28.226Z,4.80
2023-04-10T11:58:43.167Z,4.30
2023-04-10T12:02:41.241Z,5.20
2023-04-10T12:06:39.102Z,4.80
2023-04-10T12:10:37.170Z,5.10
2023-04-10T12:14:37.100Z,4.60
2023-04-10T12:18:37.238Z,4.80
2023-04-10T12:22:36.113Z,4.50
2023-04-10T12:26:34.218Z,4.70
2023-04-10T12:30:32.094Z,4.70
2023-04-10T12:34:33.141Z,4.80
2023-04-10T12:38:31.128Z,4.90
2023-04-10T12:42:31.154Z,5.10
2023-04-10T12:46:39.179Z,4.50
2023-04-10T12:50:37.149Z,3.90
2023-04-10T12:54:43.072Z,3.00
2023-04-10T12:58:42.170Z,3.50
2023-04-10T13:02:42.280Z,3.50
2023-04-10T13:06:40.054Z,3.00
2023-04-10T13:10:38.138Z,2.80
2023-04-10T13:14:36.105Z,3.50
2023-04-10T13:18:34.074Z,2.60
2023-04-10T13:22:32.087Z,3.30
2023-04-10T13:26:30.022Z,4.00
2023-04-10T13:30:28.046Z,4.90
2023-04-10T13:34:26.180Z,4.40
2023-04-10T13:38:24.160Z,3.60
2023-04-10T13:42:22.149Z,3.20
2023-04-10T13:46:21.159Z,3.20
2023-04-10T13:50:19.118Z,3.40
2023-04-10T13:54:18.059Z,3.30
2023-04-10T13:58:16.014Z,3.10
2023-04-10T14:02:14.365Z,4.10
2023-04-10T14:06:12.056Z,4.10
2023-04-10T14:10:10.013Z,4.00
2023-04-10T14:14:08.023Z,4.40
2023-04-10T14:18:06.102Z,5.40
2023-04-10T14:22:04.084Z,6.00
2023-04-10T14:26:04.108Z,5.30
2023-04-10T14:30:01.963Z,5.10
2023-04-10T14:34:00.009Z,5.50
2023-04-10T14:37:57.941Z,5.10
2023-04-10T14:41:56.014Z,4.90
2023-04-10T14:45:53.958Z,4.40
2023-04-10T14:49:52.082Z,4.70
2023-04-10T14:53:50.090Z,5.30
2023-04-10T14:57:48.018Z,4.70
2023-04-10T15:01:46.086Z,3.90
2023-04-10T15:05:44.047Z,4.60
2023-04-10T15:09:41.937Z,5.00
2023-04-10T15:13:40.057Z,5.00
2023-04-10T15:17:37.975Z,4.90
2023-04-10T15:21:36.263Z,4.30
2023-04-10T15:25:33.932Z,4.40
2023-04-10T15:29:32.987Z,4.20
2023-04-10T15:33:33.130Z,3.70
2023-04-10T15:37:31.895Z,3.90
2023-04-10T15:41:29.904Z,4.50
2023-04-10T15:45:27.941Z,4.80
2023-04-10T15:49:36.232Z,4.40
2023-04-10T15:53:34.941Z,4.50
2023-04-10T15:57:32.850Z,4.70
2023-04-10T16:01:30.936Z,4.20
2023-04-10T16:05:29.867Z,4.60
2023-04-10T16:09:27.959Z,4.80
2023-04-10T16:13:25.908Z,5.60
2023-04-10T16:17:24.938Z,5.30
2023-04-10T16:21:22.823Z,6.20
2023-04-10T16:25:21.829Z,6.00
2023-04-10T16:29:19.851Z,6.50
2023-04-10T16:33:17.904Z,6.70
2023-04-10T16:37:15.862Z,8.70
2023-04-10T16:41:16.826Z,5.70
2023-04-10T16:45:14.831Z,5.20
2023-04-10T16:49:12.834Z,4.60
2023-04-10T16:53:10.820Z,4.50
2023-04-10T16:57:08.901Z,4.90
2023-04-10T17:01:06.810Z,5.20
2023-04-10T17:05:04.825Z,4.70
2023-04-10T17:09:02.792Z,5.40
2023-04-10T17:12:41.132Z,6.80
2023-04-10T17:16:06.364Z,6.10
2023-04-10T17:19:31.796Z,5.70
2023-04-10T17:22:56.082Z,6.50
2023-04-10T17:26:23.338Z,6.10
2023-04-10T17:29:47.635Z,6.40
2023-04-10T17:33:11.525Z,5.10
2023-04-10T17:36:35.695Z,6.50
2023-04-10T17:40:19.768Z,5.80
2023-04-10T17:44:17.741Z,5.80
2023-04-10T17:48:15.851Z,6.20
2023-04-10T17:52:13.780Z,5.40
2023-04-10T17:56:11.824Z,6.00
2023-04-10T18:00:09.733Z,6.50
2023-04-10T18:04:09.789Z,5.80
2023-04-10T18:08:09.793Z,6.00
2023-04-10T18:12:07.763Z,6.80
2023-04-10T18:16:05.842Z,10.20
2023-04-10T18:20:04.787Z,7.50
2023-04-10T18:24:02.737Z,11.20
2023-04-10T18:32:01.801Z,14.50
2023-04-10T18:35:59.898Z,13.70
2023-04-10T18:40:03.428Z,11.30
2023-04-10T18:48:04.738Z,19.20
2023-04-10T18:52:03.736Z,20.50
2023-04-10T18:56:08.777Z,19.20
2023-04-10T19:00:08.697Z,19.90
2023-04-10T19:04:06.877Z,19.00
2023-04-10T19:08:05.158Z,18.50
2023-04-10T19:12:03.629Z,18.30
2023-04-10T19:16:02.790Z,18.70
2023-04-10T19:20:01.662Z,18.30
2023-04-10T19:23:59.747Z,20.30
2023-04-10T19:27:58.857Z,23.20
2023-04-10T19:31:56.633Z,24.40
2023-04-10T19:35:54.635Z,21.90
2023-04-10T19:39:52.652Z,22.10
2023-04-10T19:43:50.696Z,19.50
2023-04-10T19:47:48.642Z,19.60
2023-04-10T19:51:46.627Z,20.50
2023-04-10T19:55:44.606Z,19.50
2023-04-10T19:59:44.599Z,22.70
2023-04-10T20:03:43.703Z,22.40
2023-04-10T20:07:41.657Z,22.30
2023-04-10T20:11:40.731Z,23.00
2023-04-10T20:15:38.548Z,23.30
2023-04-10T20:19:36.615Z,22.10
2023-04-10T20:23:34.545Z,24.10
2023-04-10T20:27:33.034Z,22.70
2023-04-10T20:31:32.137Z,23.70
2023-04-10T20:35:31.683Z,22.60
2023-04-10T20:39:31.600Z,23.30
2023-04-10T20:43:29.665Z,22.90
2023-04-10T20:47:29.635Z,22.10
2023-04-10T20:51:27.595Z,22.70
2023-04-10T20:55:25.551Z,22.00
2023-04-10T20:59:23.531Z,21.90
2023-04-10T21:03:21.658Z,23.00
2023-04-10T21:07:19.530Z,23.30
2023-04-10T21:11:17.507Z,23.50
2023-04-10T21:15:15.550Z,22.20
2023-04-10T21:19:13.555Z,22.00
2023-04-10T21:23:11.630Z,21.70
2023-04-10T21:27:09.517Z,22.90
2023-04-10T21:31:07.682Z,22.00
2023-04-10T21:35:05.451Z,21.30
2023-04-10T21:39:03.535Z,22.00
2023-04-10T21:43:01.524Z,26.30
2023-04-10T21:46:59.500Z,22.50
2023-04-10T21:50:59.508Z,23.80
2023-04-10T21:54:59.538Z,21.20
2023-04-10T21:58:59.454Z,20.60
2023-04-10T22:02:57.622Z,21.50
2023-04-10T22:06:48.568Z,20.40
2023-04-10T22:10:46.534Z,21.60
2023-04-10T22:14:44.381Z,21.30
2023-04-10T22:18:42.537Z,22.40
2023-04-10T22:22:40.470Z,21.90
2023-04-10T22:26:39.471Z,21.70
2023-04-10T22:30:37.463Z,18.70
2023-04-10T22:34:35.530Z,20.80
2023-04-10T22:38:33.409Z,19.50
2023-04-10T22:42:32.030Z,20.50
2023-04-10T22:46:30.374Z,21.00
2023-04-10T22:50:28.420Z,19.80
2023-04-10T22:54:28.600Z,20.40
2023-04-10T22:58:26.482Z,19.20
2023-04-10T23:02:24.453Z,20.70
2023-04-10T23:06:22.442Z,20.60
2023-04-10T23:10:21.360Z,21.30
2023-04-10T23:14:19.344Z,20.30
2023-04-10T23:18:18.341Z,20.80
2023-04-10T23:22:16.368Z,20.90
2023-04-10T23:26:15.316Z,20.90
2023-04-10T23:30:13.365Z,22.20
2023-04-10T23:34:11.359Z,19.70
2023-04-10T23:38:09.441Z,21.00
2023-04-10T23:42:07.422Z,23.30
2023-04-10T23:46:05.371Z,22.40
2023-04-10T23:50:03.382Z,20.70
2023-04-10T23:54:01.300Z,22.10
2023-04-10T23:57:59.334Z,23.30
